Time;durP1;ratioP1;P1;durP2;ratioP2;P2;SDS_P1;SDS_P2;PMS_P1;PMS_P2;Temp;Humidity;BMP_temperature;BMP_pressure;BME280_temperature;BME280_humidity;BME280_pressure;Samples;Min_cycle;Max_cycle;Signal;HPM_P1;HPM_P2
2022/03/25 00:00:14;;;;;;;41.50;27.58;;;;;;;;;;4999484;28;20228;-78
2022/03/25 00:02:41;;;;;;;40.40;24.75;;;;;;;;;;4995418;28;20671;-78
2022/03/25 00:05:08;;;;;;;37.70;24.58;;;;;;;;;;5010235;28;20207;-77
2022/03/25 00:07:35;;;;;;;35.25;24.42;;;;;;;;;;5014130;28;20208;-79
2022/03/25 00:10:02;;;;;;;31.38;22.52;;;;;;;;;;5001753;28;20242;-78
2022/03/25 00:12:31;;;;;;;31.80;22.38;;;;;;;;;;5007971;28;20690;-79
2022/03/25 00:14:58;;;;;;;32.80;22.52;;;;;;;;;;5011555;28;20714;-80
2022/03/25 00:17:25;;;;;;;32.53;21.48;;;;;;;;;;4993806;28;20205;-79
2022/03/25 00:19:52;;;;;;;35.28;24.30;;;;;;;;;;5020172;28;20223;-80
2022/03/25 00:22:19;;;;;;;33.55;21.63;;;;;;;;;;4999744;28;20204;-83
2022/03/25 00:24:46;;;;;;;28.23;20.60;;;;;;;;;;5015892;28;20208;-82
2022/03/25 00:27:14;;;;;;;30.75;24.13;;;;;;;;;;4994733;28;20688;-82
2022/03/25 00:29:43;;;;;;;30.05;22.95;;;;;;;;;;4997097;28;20193;-83
2022/03/25 00:32:10;;;;;;;31.05;22.40;;;;;;;;;;5012788;28;20282;-83
2022/03/25 00:34:37;;;;;;;32.67;21.35;;;;;;;;;;5014083;28;20196;-81
2022/03/25 00:37:04;;;;;;;35.33;22.48;;;;;;;;;;4995967;28;20203;-82
2022/03/25 00:39:31;;;;;;;31.70;21.58;;;;;;;;;;5008828;28;20339;-82
2022/03/25 00:41:58;;;;;;;37.40;22.08;;;;;;;;;;5014029;28;20200;-82
2022/03/25 00:44:25;;;;;;;31.45;21.38;;;;;;;;;;5012788;28;20203;-81
2022/03/25 00:46:54;;;;;;;28.83;19.80;;;;;;;;;;4997454;28;20284;-82
2022/03/25 00:49:21;;;;;;;30.70;22.25;;;;;;;;;;4993850;28;20236;-82
2022/03/25 00:51:48;;;;;;;29.08;20.83;;;;;;;;;;5005442;28;20204;-82
2022/03/25 00:54:15;;;;;;;35.30;19.77;;;;;;;;;;5010240;28;20220;-80
2022/03/25 00:56:42;;;;;;;33.10;23.50;;;;;;;;;;5012205;28;20207;-82
2022/03/25 00:59:09;;;;;;;38.90;25.85;;;;;;;;;;5003273;28;20300;-79
2022/03/25 01:01:37;;;;;;;35.13;23.02;;;;;;;;;;5000336;28;20723;-83
2022/03/25 01:04:08;;;;;;;32.38;22.90;;;;;;;;;;5010536;28;20197;-83
2022/03/25 01:06:35;;;;;;;33.53;23.23;;;;;;;;;;5000968;28;20208;-84
2022/03/25 01:09:02;;;;;;;30.48;22.17;;;;;;;;;;5016813;28;20200;-83
2022/03/25 01:11:29;;;;;;;33.35;24.70;;;;;;;;;;5004661;28;20669;-83
2022/03/25 01:13:58;;;;;;;39.00;24.23;;;;;;;;;;4993364;28;20197;-84
2022/03/25 01:16:25;;;;;;;38.38;23.40;;;;;;;;;;5000347;28;20205;-83
2022/03/25 01:18:52;;;;;;;37.42;25.27;;;;;;;;;;4993438;28;20234;-83
2022/03/25 01:21:21;;;;;;;36.15;25.38;;;;;;;;;;4993753;28;20952;-81
2022/03/25 01:23:49;;;;;;;37.83;26.75;;;;;;;;;;4999380;28;20666;-83
2022/03/25 01:26:16;;;;;;;36.10;23.98;;;;;;;;;;4999201;28;20232;-82
2022/03/25 01:28:43;;;;;;;41.53;27.73;;;;;;;;;;5010301;28;20207;-83
2022/03/25 01:31:10;;;;;;;37.67;23.35;;;;;;;;;;5000139;28;20201;-83
2022/03/25 01:33:38;;;;;;;39.47;25.05;;;;;;;;;;4995299;28;20568;-82
2022/03/25 01:36:05;;;;;;;36.60;24.20;;;;;;;;;;5002127;28;20200;-83
2022/03/25 01:38:34;;;;;;;35.35;24.27;;;;;;;;;;4995824;28;20212;-82
2022/03/25 01:41:01;;;;;;;31.48;22.63;;;;;;;;;;4992859;28;20220;-82
2022/03/25 01:43:28;;;;;;;33.08;22.90;;;;;;;;;;5000555;28;20196;-81
2022/03/25 01:45:55;;;;;;;33.50;23.50;;;;;;;;;;5003549;28;20200;-83
2022/03/25 01:48:23;;;;;;;36.05;24.08;;;;;;;;;;5016130;28;20221;-83
2022/03/25 01:50:50;;;;;;;34.55;22.92;;;;;;;;;;5007108;28;20192;-83
2022/03/25 01:53:18;;;;;;;31.58;21.13;;;;;;;;;;5008356;28;20675;-81
2022/03/25 01:55:50;;;;;;;28.48;20.77;;;;;;;;;;4998734;28;20270;-83
2022/03/25 01:58:18;;;;;;;31.25;19.60;;;;;;;;;;5007224;28;20267;-82
2022/03/25 02:00:45;;;;;;;28.60;20.67;;;;;;;;;;5005154;28;20687;-83
2022/03/25 02:03:13;;;;;;;30.60;20.48;;;;;;;;;;5004664;28;20208;-82
2022/03/25 02:05:40;;;;;;;32.33;21.60;;;;;;;;;;5005665;28;20204;-84
2022/03/25 02:08:08;;;;;;;30.42;20.48;;;;;;;;;;5006025;28;20539;-84
2022/03/25 02:10:35;;;;;;;28.52;20.42;;;;;;;;;;5017320;28;20660;-83
2022/03/25 02:13:03;;;;;;;25.92;20.35;;;;;;;;;;5005876;28;20213;-83
2022/03/25 02:15:34;;;;;;;25.27;20.67;;;;;;;;;;5005363;28;20204;-82
2022/03/25 02:18:02;;;;;;;23.63;18.50;;;;;;;;;;5009065;28;20201;-79
2022/03/25 02:20:29;;;;;;;30.10;19.42;;;;;;;;;;5006982;28;20220;-83
2022/03/25 02:22:58;;;;;;;24.73;17.42;;;;;;;;;;5009661;28;20196;-83
2022/03/25 02:25:26;;;;;;;26.60;18.15;;;;;;;;;;5006225;28;20193;-82
2022/03/25 02:27:53;;;;;;;24.60;18.27;;;;;;;;;;5010503;28;20205;-80
2022/03/25 02:30:21;;;;;;;25.10;19.55;;;;;;;;;;5007452;28;20651;-82
2022/03/25 02:32:48;;;;;;;23.17;17.75;;;;;;;;;;4999966;28;20204;-83
2022/03/25 02:35:15;;;;;;;24.40;18.52;;;;;;;;;;5005156;28;20615;-81
2022/03/25 02:37:42;;;;;;;24.42;18.23;;;;;;;;;;5008061;28;20572;-83
2022/03/25 02:40:11;;;;;;;24.48;18.10;;;;;;;;;;5012422;28;20294;-82
2022/03/25 02:42:38;;;;;;;25.75;17.70;;;;;;;;;;5005797;28;20204;-82
2022/03/25 02:45:06;;;;;;;28.10;19.15;;;;;;;;;;4997253;28;20209;-82
2022/03/25 02:47:34;;;;;;;20.27;16.60;;;;;;;;;;4997086;28;20200;-82
2022/03/25 02:50:01;;;;;;;22.38;15.18;;;;;;;;;;5007897;28;20193;-82
2022/03/25 02:52:29;;;;;;;22.13;17.80;;;;;;;;;;5010611;28;20329;-82
2022/03/25 02:54:56;;;;;;;24.48;18.15;;;;;;;;;;5005893;28;20691;-83
2022/03/25 02:57:25;;;;;;;22.23;15.70;;;;;;;;;;5002690;28;20654;-81
2022/03/25 02:59:52;;;;;;;24.33;18.13;;;;;;;;;;5001761;28;20289;-82
2022/03/25 03:02:19;;;;;;;22.60;17.63;;;;;;;;;;5013883;28;20204;-81
2022/03/25 03:04:46;;;;;;;21.77;17.45;;;;;;;;;;5008048;28;20287;-83
2022/03/25 03:07:13;;;;;;;28.15;18.17;;;;;;;;;;5008314;28;20663;-79
2022/03/25 03:09:40;;;;;;;25.40;17.35;;;;;;;;;;5008430;28;20208;-82
2022/03/25 03:12:08;;;;;;;21.75;17.15;;;;;;;;;;5007002;28;20262;-79
2022/03/25 03:14:36;;;;;;;21.85;17.23;;;;;;;;;;5000196;28;20207;-80
2022/03/25 03:17:04;;;;;;;22.75;17.38;;;;;;;;;;5015455;28;20230;-80
2022/03/25 03:19:32;;;;;;;23.15;18.42;;;;;;;;;;5006958;28;20298;-80
2022/03/25 03:21:59;;;;;;;20.48;16.48;;;;;;;;;;5005375;28;20312;-80
2022/03/25 03:24:26;;;;;;;22.83;16.63;;;;;;;;;;5000319;28;20196;-80
2022/03/25 03:26:53;;;;;;;22.08;17.88;;;;;;;;;;5007801;28;20242;-80
2022/03/25 03:29:21;;;;;;;22.35;17.13;;;;;;;;;;5006436;28;20228;-80
2022/03/25 03:31:49;;;;;;;23.70;18.25;;;;;;;;;;5007104;28;20215;-77
2022/03/25 03:34:16;;;;;;;23.48;16.63;;;;;;;;;;5010110;28;20564;-77
2022/03/25 03:36:43;;;;;;;24.40;18.15;;;;;;;;;;5004888;28;20203;-78
2022/03/25 03:39:11;;;;;;;26.17;17.50;;;;;;;;;;5008328;28;20203;-77
2022/03/25 03:41:38;;;;;;;24.50;16.98;;;;;;;;;;5002590;28;20266;-77
2022/03/25 03:44:06;;;;;;;23.98;18.13;;;;;;;;;;5004512;28;20200;-76
2022/03/25 03:46:34;;;;;;;22.27;16.70;;;;;;;;;;5003534;28;20211;-77
2022/03/25 03:49:02;;;;;;;21.55;15.85;;;;;;;;;;5014503;28;20211;-79
2022/03/25 03:51:29;;;;;;;27.83;18.65;;;;;;;;;;5007160;28;20215;-77
2022/03/25 03:53:56;;;;;;;29.20;19.85;;;;;;;;;;5003930;28;20228;-78
2022/03/25 03:56:23;;;;;;;21.92;16.50;;;;;;;;;;5006885;28;20715;-77
2022/03/25 03:58:50;;;;;;;21.90;17.23;;;;;;;;;;5015913;28;20210;-76
2022/03/25 04:01:18;;;;;;;22.45;17.90;;;;;;;;;;4994838;28;20258;-76
2022/03/25 04:03:45;;;;;;;20.33;16.08;;;;;;;;;;5008384;28;20220;-76
2022/03/25 04:06:13;;;;;;;22.02;17.02;;;;;;;;;;5005240;28;20572;-77
2022/03/25 04:08:40;;;;;;;23.38;16.83;;;;;;;;;;4999307;28;20263;-77
2022/03/25 04:11:08;;;;;;;19.88;16.92;;;;;;;;;;5020436;28;20192;-76
2022/03/25 04:13:35;;;;;;;22.65;16.77;;;;;;;;;;5015915;28;20204;-76
2022/03/25 04:16:02;;;;;;;21.88;16.98;;;;;;;;;;5014506;28;20200;-77
2022/03/25 04:18:29;;;;;;;19.27;15.50;;;;;;;;;;5010906;28;20201;-79
2022/03/25 04:20:56;;;;;;;24.30;16.35;;;;;;;;;;5016013;28;20230;-77
2022/03/25 04:23:24;;;;;;;27.50;17.42;;;;;;;;;;5011593;28;20208;-78
2022/03/25 04:25:51;;;;;;;21.35;15.90;;;;;;;;;;5012100;28;20208;-76
2022/03/25 04:28:19;;;;;;;21.98;16.55;;;;;;;;;;5012465;28;20200;-76
2022/03/25 04:30:47;;;;;;;21.10;15.45;;;;;;;;;;5011557;28;20613;-77
2022/03/25 04:33:14;;;;;;;22.35;15.48;;;;;;;;;;5011274;28;20224;-76
2022/03/25 04:35:41;;;;;;;21.95;16.95;;;;;;;;;;5013939;28;20478;-77
2022/03/25 04:38:08;;;;;;;21.92;15.38;;;;;;;;;;5001048;28;20652;-77
2022/03/25 04:40:37;;;;;;;21.40;16.70;;;;;;;;;;5007107;28;20203;-77
2022/03/25 04:43:04;;;;;;;23.75;17.10;;;;;;;;;;5014248;28;20196;-76
2022/03/25 04:45:32;;;;;;;24.92;17.98;;;;;;;;;;5011195;28;20680;-77
2022/03/25 04:47:59;;;;;;;21.63;17.00;;;;;;;;;;5009562;28;20282;-77
2022/03/25 04:50:27;;;;;;;20.45;17.65;;;;;;;;;;5013330;28;20687;-78
2022/03/25 04:52:54;;;;;;;22.05;15.65;;;;;;;;;;5014362;28;20204;-77
2022/03/25 04:55:22;;;;;;;24.02;16.52;;;;;;;;;;5007760;28;20223;-79
2022/03/25 04:57:50;;;;;;;20.50;16.40;;;;;;;;;;5009735;28;20211;-77
2022/03/25 05:00:18;;;;;;;20.52;15.63;;;;;;;;;;5004944;28;20215;-77
2022/03/25 05:02:45;;;;;;;21.00;16.70;;;;;;;;;;5005126;28;20508;-77
2022/03/25 05:05:13;;;;;;;23.20;16.13;;;;;;;;;;5013963;28;20204;-77
2022/03/25 05:07:41;;;;;;;23.08;18.27;;;;;;;;;;5011798;28;20200;-78
2022/03/25 05:10:10;;;;;;;20.13;16.27;;;;;;;;;;5013872;28;20203;-77
2022/03/25 05:12:37;;;;;;;19.38;16.25;;;;;;;;;;5015918;28;20655;-77
2022/03/25 05:15:06;;;;;;;22.10;16.48;;;;;;;;;;5009971;28;20201;-77
2022/03/25 05:17:34;;;;;;;20.35;15.05;;;;;;;;;;5019824;28;20203;-77
2022/03/25 05:20:05;;;;;;;22.42;15.77;;;;;;;;;;5014422;28;20204;-77
2022/03/25 05:22:32;;;;;;;18.88;16.30;;;;;;;;;;5014741;28;20223;-79
2022/03/25 05:24:59;;;;;;;23.35;15.40;;;;;;;;;;5011875;28;20196;-76
2022/03/25 05:27:26;;;;;;;20.90;15.55;;;;;;;;;;5012824;28;20291;-76
2022/03/25 05:29:53;;;;;;;21.25;16.40;;;;;;;;;;5005168;28;20200;-76
2022/03/25 05:32:22;;;;;;;19.75;15.40;;;;;;;;;;5021898;28;20639;-76
2022/03/25 05:34:49;;;;;;;21.20;15.75;;;;;;;;;;5013030;28;20207;-77
2022/03/25 05:37:16;;;;;;;22.48;15.05;;;;;;;;;;5003949;28;20226;-76
2022/03/25 05:39:43;;;;;;;18.15;14.75;;;;;;;;;;5010735;28;20664;-77
2022/03/25 05:42:10;;;;;;;21.88;15.13;;;;;;;;;;5012733;28;20212;-76
2022/03/25 05:44:37;;;;;;;20.20;15.07;;;;;;;;;;5004947;28;20237;-76
2022/03/25 05:47:04;;;;;;;20.33;14.23;;;;;;;;;;5018418;28;20205;-76
2022/03/25 05:49:34;;;;;;;20.80;16.33;;;;;;;;;;5003880;28;20220;-76
2022/03/25 05:52:01;;;;;;;19.58;15.30;;;;;;;;;;5006323;28;20200;-76
2022/03/25 05:54:28;;;;;;;23.02;17.00;;;;;;;;;;5001563;28;20224;-76
2022/03/25 05:56:55;;;;;;;19.50;15.10;;;;;;;;;;5008254;28;20200;-77
2022/03/25 05:59:22;;;;;;;19.33;14.80;;;;;;;;;;5016277;28;20202;-77
2022/03/25 06:01:49;;;;;;;20.25;14.45;;;;;;;;;;4996221;28;20220;-78
2022/03/25 06:04:16;;;;;;;20.75;14.73;;;;;;;;;;5012642;28;20203;-77
2022/03/25 06:06:44;;;;;;;21.83;14.60;;;;;;;;;;5004736;28;20211;-78
2022/03/25 06:09:11;;;;;;;23.38;15.20;;;;;;;;;;5016574;28;20569;-77
2022/03/25 06:11:38;;;;;;;24.45;16.65;;;;;;;;;;5013313;28;20224;-77
2022/03/25 06:14:05;;;;;;;18.73;14.30;;;;;;;;;;5010127;28;20204;-78
2022/03/25 06:16:33;;;;;;;21.50;15.25;;;;;;;;;;4997631;28;20201;-77
2022/03/25 06:19:00;;;;;;;18.60;15.10;;;;;;;;;;5005168;28;20568;-77
2022/03/25 06:21:27;;;;;;;22.10;16.25;;;;;;;;;;5006507;28;20302;-77
2022/03/25 06:23:56;;;;;;;18.30;16.33;;;;;;;;;;5001638;28;20663;-78
2022/03/25 06:26:23;;;;;;;24.63;16.90;;;;;;;;;;5008376;28;20200;-76
2022/03/25 06:28:50;;;;;;;24.80;17.40;;;;;;;;;;5008232;28;20647;-77
2022/03/25 06:31:17;;;;;;;25.55;15.68;;;;;;;;;;5003956;28;20203;-76
2022/03/25 06:33:44;;;;;;;24.85;15.43;;;;;;;;;;5014692;28;20196;-77
2022/03/25 06:36:13;;;;;;;23.33;16.45;;;;;;;;;;5003886;28;20208;-77
2022/03/25 06:38:40;;;;;;;22.95;17.05;;;;;;;;;;5010300;28;20634;-77
2022/03/25 06:41:09;;;;;;;21.65;15.98;;;;;;;;;;5012073;28;20207;-76
2022/03/25 06:43:36;;;;;;;21.92;15.63;;;;;;;;;;5006228;28;20671;-77
2022/03/25 06:46:04;;;;;;;21.00;14.73;;;;;;;;;;4998832;28;20201;-77
2022/03/25 06:48:31;;;;;;;21.90;16.02;;;;;;;;;;5001054;28;20204;-77
2022/03/25 06:50:59;;;;;;;21.60;15.48;;;;;;;;;;5005040;28;20204;-76
2022/03/25 06:53:27;;;;;;;18.63;14.35;;;;;;;;;;5002522;28;20228;-79
2022/03/25 06:55:54;;;;;;;17.25;14.23;;;;;;;;;;5007338;28;20220;-77
2022/03/25 06:58:24;;;;;;;20.55;14.75;;;;;;;;;;5004117;28;20204;-76
2022/03/25 07:00:51;;;;;;;19.17;15.43;;;;;;;;;;5004862;28;20200;-77
2022/03/25 07:03:18;;;;;;;20.70;14.95;;;;;;;;;;5007608;28;20234;-76
2022/03/25 07:05:46;;;;;;;24.02;15.85;;;;;;;;;;5002890;28;20204;-78
2022/03/25 07:08:13;;;;;;;24.83;17.50;;;;;;;;;;5006588;28;20195;-78
2022/03/25 07:10:41;;;;;;;21.85;17.05;;;;;;;;;;5005136;28;20686;-77
2022/03/25 07:13:08;;;;;;;24.05;17.25;;;;;;;;;;5015289;28;20200;-76
2022/03/25 07:15:37;;;;;;;22.02;16.90;;;;;;;;;;5001514;28;20209;-78
2022/03/25 07:18:04;;;;;;;31.10;19.33;;;;;;;;;;5005576;28;20206;-78
2022/03/25 07:20:31;;;;;;;23.45;18.40;;;;;;;;;;5000531;28;20654;-78
2022/03/25 07:22:58;;;;;;;23.35;17.10;;;;;;;;;;5006069;28;20259;-78
2022/03/25 07:25:27;;;;;;;25.23;18.80;;;;;;;;;;5005539;28;20196;-79
2022/03/25 07:27:54;;;;;;;24.08;18.35;;;;;;;;;;5003572;28;20197;-78
2022/03/25 07:30:21;;;;;;;30.52;20.77;;;;;;;;;;5002241;28;20835;-77
2022/03/25 07:32:50;;;;;;;28.67;19.88;;;;;;;;;;5001740;28;20568;-78
2022/03/25 07:35:17;;;;;;;24.90;18.45;;;;;;;;;;5002797;28;20200;-78
2022/03/25 07:37:45;;;;;;;28.10;17.42;;;;;;;;;;5005161;28;20462;-77
2022/03/25 07:40:12;;;;;;;24.70;18.30;;;;;;;;;;5006856;28;20629;-78
2022/03/25 07:42:41;;;;;;;26.02;18.73;;;;;;;;;;5004071;28;20223;-77
2022/03/25 07:45:09;;;;;;;25.75;20.20;;;;;;;;;;5001277;28;20215;-79
2022/03/25 07:47:40;;;;;;;24.30;18.83;;;;;;;;;;5005248;28;20308;-77
2022/03/25 07:50:09;;;;;;;24.75;19.05;;;;;;;;;;5008552;28;20211;-78
2022/03/25 07:52:36;;;;;;;27.75;21.05;;;;;;;;;;5015112;28;20262;-78
2022/03/25 07:55:03;;;;;;;27.00;19.92;;;;;;;;;;5006941;28;20224;-78
2022/03/25 07:57:30;;;;;;;21.58;17.65;;;;;;;;;;5005282;28;20212;-78
2022/03/25 07:59:58;;;;;;;27.08;18.48;;;;;;;;;;4997826;28;20204;-77
2022/03/25 08:02:25;;;;;;;22.13;17.45;;;;;;;;;;5010261;28;20252;-78
2022/03/25 08:04:52;;;;;;;24.80;17.15;;;;;;;;;;5013536;28;20211;-78
2022/03/25 08:07:21;;;;;;;22.40;18.15;;;;;;;;;;5021477;28;20199;-78
2022/03/25 08:09:48;;;;;;;24.38;17.00;;;;;;;;;;5005480;28;20216;-77
2022/03/25 08:12:15;;;;;;;21.40;16.90;;;;;;;;;;5008595;28;20583;-78
2022/03/25 08:14:42;;;;;;;19.92;15.98;;;;;;;;;;5008379;28;20208;-79
2022/03/25 08:17:09;;;;;;;25.10;19.02;;;;;;;;;;5008883;28;20214;-78
2022/03/25 08:19:37;;;;;;;22.08;17.35;;;;;;;;;;5006561;28;20207;-77
2022/03/25 08:22:04;;;;;;;30.70;20.00;;;;;;;;;;5007616;28;20215;-77
2022/03/25 08:30:01;;;;;;;20.10;16.67;;;;;;;;;;5004725;28;20685;-78
2022/03/25 08:32:29;;;;;;;24.60;18.05;;;;;;;;;;5008266;28;20207;-76
2022/03/25 08:34:56;;;;;;;25.33;17.30;;;;;;;;;;5010530;28;20219;-77
2022/03/25 08:37:23;;;;;;;18.00;15.45;;;;;;;;;;5013035;28;20192;-76
2022/03/25 08:39:51;;;;;;;22.50;15.18;;;;;;;;;;5006582;28;20204;-77
2022/03/25 08:42:18;;;;;;;21.88;17.05;;;;;;;;;;5010136;28;20714;-77
2022/03/25 08:44:45;;;;;;;20.85;17.38;;;;;;;;;;5012803;28;20547;-75
2022/03/25 08:47:12;;;;;;;22.63;17.42;;;;;;;;;;5007992;28;20563;-77
2022/03/25 08:49:39;;;;;;;20.90;14.38;;;;;;;;;;5013610;28;20585;-77
2022/03/25 08:52:07;;;;;;;19.58;14.23;;;;;;;;;;5003991;28;20228;-77
2022/03/25 08:54:34;;;;;;;17.73;13.40;;;;;;;;;;5007544;28;20227;-78
2022/03/25 08:57:03;;;;;;;19.75;17.02;;;;;;;;;;5005773;28;20592;-77
2022/03/25 08:59:30;;;;;;;22.50;16.35;;;;;;;;;;4998950;28;20197;-78
2022/03/25 09:01:59;;;;;;;20.88;15.52;;;;;;;;;;5009498;28;20250;-79
2022/03/25 09:04:26;;;;;;;17.83;14.93;;;;;;;;;;5013377;28;20227;-78
2022/03/25 09:06:53;;;;;;;16.42;14.48;;;;;;;;;;5014324;28;20567;-76
2022/03/25 09:09:20;;;;;;;23.80;16.80;;;;;;;;;;5019006;28;20198;-76
2022/03/25 09:11:48;;;;;;;22.67;17.05;;;;;;;;;;5004274;28;20678;-77
2022/03/25 09:14:17;;;;;;;15.18;11.98;;;;;;;;;;5009389;28;20218;-76
2022/03/25 09:16:44;;;;;;;20.45;14.82;;;;;;;;;;5013372;28;20192;-79
2022/03/25 09:19:12;;;;;;;18.52;13.77;;;;;;;;;;5006416;28;20689;-76
2022/03/25 09:21:39;;;;;;;18.35;14.38;;;;;;;;;;5012187;28;20579;-77
2022/03/25 09:24:07;;;;;;;15.65;13.93;;;;;;;;;;5011040;28;20220;-77
2022/03/25 09:26:34;;;;;;;20.67;15.00;;;;;;;;;;5007016;28;20196;-76
2022/03/25 09:29:01;;;;;;;18.08;14.13;;;;;;;;;;4997719;28;20244;-78
2022/03/25 09:31:30;;;;;;;21.10;15.20;;;;;;;;;;5007936;28;20207;-77
2022/03/25 09:35:08;;;;;;;19.23;14.80;;;;;;;;;;5009863;28;20283;-77
2022/03/25 09:36:44;;;;;;;20.23;15.90;;;;;;;;;;5015212;28;20200;-79
2022/03/25 09:39:11;;;;;;;23.42;16.85;;;;;;;;;;4994318;28;20200;-77
2022/03/25 09:41:38;;;;;;;20.50;14.70;;;;;;;;;;5008956;28;20219;-76
2022/03/25 09:44:05;;;;;;;18.77;13.60;;;;;;;;;;4994086;28;20208;-77
2022/03/25 09:46:41;;;;;;;19.02;15.70;;;;;;;;;;5013842;28;20204;-78
2022/03/25 09:49:08;;;;;;;19.42;14.82;;;;;;;;;;5010065;28;20659;-77
2022/03/25 09:51:36;;;;;;;21.50;16.23;;;;;;;;;;5003859;28;20619;-76
2022/03/25 09:54:03;;;;;;;19.60;14.23;;;;;;;;;;5006017;28;20215;-77
2022/03/25 09:56:30;;;;;;;19.50;13.00;;;;;;;;;;5005742;28;20813;-77
2022/03/25 09:58:57;;;;;;;20.88;13.82;;;;;;;;;;5001960;28;20223;-77
2022/03/25 10:01:24;;;;;;;20.80;15.55;;;;;;;;;;5005917;28;20200;-77
2022/03/25 10:03:52;;;;;;;27.52;14.00;;;;;;;;;;5009475;28;20220;-76
2022/03/25 10:06:20;;;;;;;17.20;13.60;;;;;;;;;;5005970;28;20262;-77
2022/03/25 10:08:55;;;;;;;20.38;16.08;;;;;;;;;;5003653;28;20202;-77
2022/03/25 10:11:23;;;;;;;21.35;15.38;;;;;;;;;;5009736;28;20212;-78
2022/03/25 10:13:50;;;;;;;19.83;15.25;;;;;;;;;;5008466;28;20215;-77
2022/03/25 10:16:35;;;;;;;23.35;13.18;;;;;;;;;;4999868;28;20666;-76
2022/03/25 10:19:04;;;;;;;24.77;15.55;;;;;;;;;;5014296;28;20222;-78
2022/03/25 10:21:49;;;;;;;21.65;15.50;;;;;;;;;;5008591;28;20208;-78
2022/03/25 10:24:18;;;;;;;22.50;14.68;;;;;;;;;;5002808;28;20725;-78
2022/03/25 10:26:45;;;;;;;21.52;13.98;;;;;;;;;;5009211;28;20215;-79
2022/03/25 10:29:21;;;;;;;20.45;15.80;;;;;;;;;;5001727;28;20204;-78
2022/03/25 10:32:04;;;;;;;24.42;16.00;;;;;;;;;;5002537;28;20717;-78
2022/03/25 10:34:32;;;;;;;21.95;15.60;;;;;;;;;;5012007;28;20208;-76
2022/03/25 10:37:03;;;;;;;24.80;15.57;;;;;;;;;;5009332;28;20582;-77
2022/03/25 10:39:31;;;;;;;23.15;16.48;;;;;;;;;;5000105;28;20750;-76
2022/03/25 10:41:59;;;;;;;21.70;16.50;;;;;;;;;;5005749;28;20212;-78
2022/03/25 10:44:35;;;;;;;19.45;16.98;;;;;;;;;;5000420;28;20231;-77
2022/03/25 10:47:20;;;;;;;27.92;16.05;;;;;;;;;;5004328;28;20202;-77
2022/03/25 10:49:49;;;;;;;19.92;14.23;;;;;;;;;;5008167;28;20663;-78
2022/03/25 10:52:21;;;;;;;21.52;16.83;;;;;;;;;;5000098;28;20200;-79
2022/03/25 10:54:48;;;;;;;18.58;14.75;;;;;;;;;;5001002;28;20232;-78
2022/03/25 10:57:17;;;;;;;27.13;15.73;;;;;;;;;;5000826;28;20212;-78
2022/03/25 10:59:44;;;;;;;21.88;14.48;;;;;;;;;;5000593;28;20197;-78
2022/03/25 11:02:11;;;;;;;24.38;16.33;;;;;;;;;;5001274;28;20204;-78
2022/03/25 11:04:41;;;;;;;25.38;15.85;;;;;;;;;;5008671;28;20227;-78
2022/03/25 11:07:10;;;;;;;21.23;14.95;;;;;;;;;;5006297;28;20553;-79
2022/03/25 11:09:38;;;;;;;23.17;16.20;;;;;;;;;;5016931;28;20732;-78
2022/03/25 11:12:05;;;;;;;24.70;16.83;;;;;;;;;;5000116;28;20208;-76
2022/03/25 11:14:32;;;;;;;17.13;12.60;;;;;;;;;;4999271;28;20664;-79
2022/03/25 11:17:01;;;;;;;21.85;15.57;;;;;;;;;;4999605;28;20203;-77
2022/03/25 11:19:29;;;;;;;21.58;16.13;;;;;;;;;;5004272;28;20204;-77
2022/03/25 11:21:57;;;;;;;19.70;13.32;;;;;;;;;;5001267;28;20207;-76
2022/03/25 11:24:30;;;;;;;19.30;14.18;;;;;;;;;;5003594;28;20303;-77
2022/03/25 11:26:58;;;;;;;25.55;17.40;;;;;;;;;;5007671;28;20222;-75
2022/03/25 11:29:27;;;;;;;25.77;18.95;;;;;;;;;;5009418;28;20211;-77
2022/03/25 11:32:04;;;;;;;26.17;16.98;;;;;;;;;;5009290;28;20203;-77
2022/03/25 11:34:31;;;;;;;23.17;16.80;;;;;;;;;;5011300;28;20202;-77
2022/03/25 11:37:20;;;;;;;21.27;16.75;;;;;;;;;;4995911;28;20211;-77
2022/03/25 11:39:48;;;;;;;24.80;18.77;;;;;;;;;;4992510;28;20228;-76
2022/03/25 11:42:37;;;;;;;26.98;16.67;;;;;;;;;;5006580;28;20543;-76
2022/03/25 11:45:24;;;;;;;29.10;18.83;;;;;;;;;;5004958;28;20201;-77
2022/03/25 11:48:25;;;;;;;21.58;17.17;;;;;;;;;;5009192;28;20204;-77
2022/03/25 11:50:55;;;;;;;23.15;18.15;;;;;;;;;;5006308;28;20207;-78
2022/03/25 11:53:32;;;;;;;26.83;17.98;;;;;;;;;;5005745;28;20200;-77
2022/03/25 11:56:01;;;;;;;28.38;16.75;;;;;;;;;;5017998;28;20234;-77
2022/03/25 11:58:29;;;;;;;21.30;16.80;;;;;;;;;;5002869;28;20227;-76
2022/03/25 12:00:58;;;;;;;24.40;16.83;;;;;;;;;;4999793;28;20292;-77
2022/03/25 12:03:41;;;;;;;27.45;15.45;;;;;;;;;;5008293;28;20220;-76
2022/03/25 12:06:10;;;;;;;19.63;15.82;;;;;;;;;;5001334;28;20204;-76
2022/03/25 12:08:39;;;;;;;21.90;16.05;;;;;;;;;;5010878;28;20209;-77
2022/03/25 12:11:07;;;;;;;26.02;16.42;;;;;;;;;;5019159;28;20617;-76
2022/03/25 12:13:53;;;;;;;21.60;16.25;;;;;;;;;;5004864;28;20205;-77
2022/03/25 12:16:38;;;;;;;22.05;16.45;;;;;;;;;;5007269;28;20287;-76
2022/03/25 12:19:05;;;;;;;26.83;18.63;;;;;;;;;;5001133;28;20215;-78
2022/03/25 12:21:45;;;;;;;21.65;16.73;;;;;;;;;;5001403;28;20212;-75
2022/03/25 12:24:13;;;;;;;19.75;15.15;;;;;;;;;;5007930;28;20240;-78
2022/03/25 12:26:40;;;;;;;22.92;15.52;;;;;;;;;;5016552;28;20211;-79
2022/03/25 12:29:08;;;;;;;24.73;18.17;;;;;;;;;;5006198;28;20342;-77
2022/03/25 12:31:35;;;;;;;19.00;14.95;;;;;;;;;;4997351;28;20251;-78
2022/03/25 12:34:03;;;;;;;24.70;15.25;;;;;;;;;;5010412;28;20543;-77
2022/03/25 12:36:33;;;;;;;22.25;16.40;;;;;;;;;;5002116;28;20273;-77
2022/03/25 12:39:02;;;;;;;26.83;14.77;;;;;;;;;;5007950;28;20211;-76
2022/03/25 12:41:30;;;;;;;24.80;15.25;;;;;;;;;;5000817;28;20646;-78
2022/03/25 12:43:58;;;;;;;17.45;14.73;;;;;;;;;;5007716;28;20710;-78
2022/03/25 12:46:26;;;;;;;23.27;16.45;;;;;;;;;;5008931;28;20733;-77
2022/03/25 12:48:53;;;;;;;21.92;13.25;;;;;;;;;;5004894;28;20224;-77
2022/03/25 12:51:22;;;;;;;14.15;12.48;;;;;;;;;;5008656;28;20227;-77
2022/03/25 12:53:49;;;;;;;26.17;17.77;;;;;;;;;;5010324;28;20630;-78
2022/03/25 12:56:18;;;;;;;24.17;16.65;;;;;;;;;;5000792;28;20223;-77
2022/03/25 12:58:45;;;;;;;23.27;15.35;;;;;;;;;;5009992;28;20215;-77
2022/03/25 13:01:16;;;;;;;21.75;16.50;;;;;;;;;;4995787;28;20209;-77
2022/03/25 13:03:43;;;;;;;23.33;16.38;;;;;;;;;;5005427;28;20576;-79
2022/03/25 13:06:12;;;;;;;22.52;15.38;;;;;;;;;;5001440;28;20207;-80
2022/03/25 13:08:39;;;;;;;22.55;15.13;;;;;;;;;;5007389;28;20270;-77
2022/03/25 13:11:06;;;;;;;25.58;16.10;;;;;;;;;;5008737;28;20215;-78
2022/03/25 13:13:38;;;;;;;16.55;13.55;;;;;;;;;;4997064;28;20197;-77
2022/03/25 13:16:06;;;;;;;23.60;19.20;;;;;;;;;;4993606;28;20671;-78
2022/03/25 13:18:34;;;;;;;21.20;14.90;;;;;;;;;;5008726;28;20204;-78
2022/03/25 13:21:01;;;;;;;27.55;15.77;;;;;;;;;;5008548;28;20303;-77
2022/03/25 13:23:29;;;;;;;19.42;13.25;;;;;;;;;;5013220;28;20559;-78
2022/03/25 13:25:57;;;;;;;23.17;15.38;;;;;;;;;;5006255;28;20201;-78
2022/03/25 13:28:25;;;;;;;21.13;15.18;;;;;;;;;;5012979;28;20200;-77
2022/03/25 13:30:54;;;;;;;22.20;14.52;;;;;;;;;;5004505;28;20230;-77
2022/03/25 13:33:22;;;;;;;24.35;16.77;;;;;;;;;;5005288;28;20211;-77
2022/03/25 13:35:50;;;;;;;16.52;14.20;;;;;;;;;;5003719;28;20718;-79
2022/03/25 13:38:18;;;;;;;21.95;15.50;;;;;;;;;;5005882;28;20219;-77
2022/03/25 13:40:46;;;;;;;21.08;15.45;;;;;;;;;;5006324;28;20672;-79
2022/03/25 13:43:16;;;;;;;18.55;14.23;;;;;;;;;;5003915;28;20228;-77
2022/03/25 13:45:43;;;;;;;18.25;13.98;;;;;;;;;;4995122;28;20204;-77
2022/03/25 13:48:15;;;;;;;21.33;14.77;;;;;;;;;;5001051;28;20215;-78
2022/03/25 13:50:50;;;;;;;19.38;15.80;;;;;;;;;;5007804;28;20289;-78
2022/03/25 13:53:20;;;;;;;27.80;16.55;;;;;;;;;;5002761;28;20655;-77
2022/03/25 13:55:47;;;;;;;22.77;15.27;;;;;;;;;;5007190;28;20247;-78
2022/03/25 13:58:15;;;;;;;24.45;15.70;;;;;;;;;;5001242;28;20196;-76
2022/03/25 14:00:43;;;;;;;20.02;15.00;;;;;;;;;;5005129;28;20215;-76
2022/03/25 14:03:17;;;;;;;20.58;13.75;;;;;;;;;;4998071;28;20200;-76
2022/03/25 14:05:45;;;;;;;20.75;13.60;;;;;;;;;;5000735;28;20228;-77
2022/03/25 14:08:13;;;;;;;24.25;16.27;;;;;;;;;;5006509;28;20627;-78
2022/03/25 14:10:56;;;;;;;18.90;13.75;;;;;;;;;;4999777;28;20636;-79
2022/03/25 14:13:23;;;;;;;18.08;14.27;;;;;;;;;;5000507;28;20235;-77
2022/03/25 14:15:50;;;;;;;22.13;15.48;;;;;;;;;;5000437;28;20200;-78
2022/03/25 14:18:18;;;;;;;19.10;15.35;;;;;;;;;;5008143;28;20195;-77
2022/03/25 14:20:47;;;;;;;24.63;14.18;;;;;;;;;;5004876;28;20630;-78
2022/03/25 14:23:16;;;;;;;20.27;14.68;;;;;;;;;;5001037;28;20200;-77
2022/03/25 14:25:44;;;;;;;22.58;13.75;;;;;;;;;;5004926;28;20258;-78
2022/03/25 14:28:13;;;;;;;20.38;14.68;;;;;;;;;;5005428;28;20201;-78